# Land Stadt Wetter Temperatur Luftdruck Luftfeuchtigkeit Sichtweite Windgeschwindigkeit Windrichtung Ortszeit
1 no Hammerfest Clouds 7 981 81 10000 50 240 02.08.2018 14:22
2 ar Ushuaia Drizzle 4 992 81 10000 28 240 02.08.2018 14:22
3 fi Rovaniemi Clouds 10 994 71 10000 28 220 02.08.2018 14:21
4 ru Amderma Clouds 5 997 90 10000 22 178 02.08.2018 14:23
5 it Palermo Clear 26 1001 28 10000 6 7 02.08.2018 14:22
6 no Oslo Clouds 15 1001 1 10000 26 205 02.08.2018 14:23
7 ar Esquel Rain 5 1001 98 260 7 263 02.08.2018 14:22
8 ru Anadyr Clouds -2 1002 80 10000 18 260 02.08.2018 14:23
9 is Reykjavik Clear 5 1002 70 10000 22 360 02.08.2018 14:22
10 in Mumbai Thunderstorm 26 1003 94 1000 19 220 02.08.2018 14:22
11 cn Lhasa Clouds 16 1003 39 10000 7 212 02.08.2018 14:22
12 gl Nuuk Clouds 0 1004 81 10000 3 20 02.08.2018 14:22
13 ae Dubai Clear 42 1004 3 10000 26 90 02.08.2018 14:21
14 qa Doha Clear 34 1005 59 10000 15 110 02.08.2018 14:23
15 cl Santiago Clouds 17 1006 49 8000 0 0 02.08.2018 14:23
16 in Nagpur Clouds 29 1006 74 3000 19 150 02.08.2018 14:21
17 us Nome Rain 4 1007 81 10000 46 250 02.08.2018 14:23
18 iq Bagdad Clear 42 1007 9 10000 15 260 02.08.2018 14:22
19 pg Port Moresby Clouds 26 1008 89 10000 9 133 02.08.2018 14:21
20 se Stockholm Clouds 15 1008 80 10000 22 210 02.08.2018 14:23
21 uy Montevideo Clear 16 1008 61 10000 19 240 02.08.2018 14:22
22 mv Male Clouds 29 1008 74 10000 26 290 02.08.2018 14:23
23 sa Riad Clear 38 1008 8 10000 3 296 02.08.2018 14:21
24 ru Surgut Clear 9 1008 61 10000 14 190 02.08.2018 14:23
25 ph Manila Clouds 29 1009 75 10000 9 110 02.08.2018 14:21
26 th Bangkok Rain 26 1009 78 10000 18 163 02.08.2018 14:21
27 cd Kisangani Clouds 22 1009 93 10000 4 266 02.08.2018 14:23
28 gb Glasgow Rain 11 1010 79 10000 19 250 02.08.2018 14:21
29 ar Buenos Aires Clear 16 1010 61 10000 6 240 02.08.2018 14:22
30 tr Alanya Clear 31 1010 29 10000 13 286 02.08.2018 14:22
31 ca Montreal Clouds 15 1010 83 10000 20 180 02.08.2018 14:22
32 id Jakarta Rain 26 1010 88 10000 20 251 02.08.2018 14:22
33 au Darwin Clear 28 1010 79 10000 6 10 02.08.2018 14:22
34 fi Helsinki Clouds 15 1011 75 10000 26 230 02.08.2018 14:21
35 sb Honiara Clouds 26 1011 87 10000 9 114 02.08.2018 14:22
36 br Rio de Janeiro Rain 24 1011 88 6000 9 340 02.08.2018 14:22
37 au Sydney Rain 17 1012 91 10000 15 10 02.08.2018 14:22
38 jp Tokio Mist 13 1012 94 4000 33 320 02.08.2018 14:22
39 br Manaus Clear 30 1012 62 10000 9 70 02.08.2018 14:21
40 gb Manchester Rain 13 1012 86 6000 22 210 02.08.2018 14:21
41 af Kabul Clear 19 1013 13 10000 10 10 02.08.2018 14:21
42 us Fairbanks Clouds 6 1013 73 10000 6 80 02.08.2018 14:23
43 vn Hanoi Clouds 27 1013 82 10000 11 141 02.08.2018 14:21
44 ie Dublin Clouds 15 1013 73 10000 34 260 02.08.2018 14:21
45 us Honolulu Clouds 24 1014 81 10000 6 290 02.08.2018 14:22
46 ma Casablanca Clouds 25 1014 78 5000 9 10 02.08.2018 14:23
47 ec San Cristobal Clouds 20 1014 86 10000 20 181 02.08.2018 14:22
48 eg Kairo Clouds 27 1014 36 10000 13 310 02.08.2018 14:22
49 ru Werchojansk Clouds -10 1014 91 10000 11 178 02.08.2018 14:22
50 ma Marrakesch Clouds 31 1015 30 8000 7 330 02.08.2018 14:23
51 us New York Fog 15 1015 85 10000 11 360 02.08.2018 14:22
52 fj Suva Clouds 23 1015 88 10000 22 20 02.08.2018 14:21
53 in Jagatsukh Clear 19 1015 66 10000 11 191 02.08.2018 14:22
54 mx Veracruz Clouds 23 1016 80 10000 5 234 02.08.2018 14:21
55 au Alice Springs Clouds 23 1016 46 10000 15 120 02.08.2018 14:21
56 de Dresden Clear 18 1016 63 10000 9 230 02.08.2018 14:22
57 es Las Palmas de Gran Canaria Clouds 27 1016 73 10000 25 346 02.08.2018 14:21
58 us Death Valley Clear 27 1016 23 10000 2 5 02.08.2018 14:22
59 do Santo Domingo Clouds 27 1016 94 10000 0 0 02.08.2018 14:21
60 es Sevilla Clear 28 1017 43 10000 19 60 02.08.2018 14:22
61 de Flensburg Clouds 15 1017 77 10000 32 230 02.08.2018 14:21
62 bs Nassau Clouds 27 1017 69 10000 17 40 02.08.2018 14:22
63 gb London Clouds 18 1018 64 10000 22 230 02.08.2018 14:22
64 de Helgoland Clouds 14 1018 82 10000 47 224 02.08.2018 14:22
65 pt Lissabon Clear 25 1018 58 10000 18 135 02.08.2018 14:22
66 ke Nairobi Clouds 25 1018 38 10000 30 120 02.08.2018 14:22
67 es Tarifa Clouds 22 1018 75 10000 35 87 02.08.2018 14:21
68 de Emden Clouds 17 1018 73 10000 32 225 02.08.2018 14:21
69 tr Ankara Clouds 14 1018 64 10000 15 50 02.08.2018 14:23
70 jp Nagasaki Clouds 18 1018 72 10000 13 350 02.08.2018 14:21
71 us Miami Clouds 23 1018 80 10000 9 360 02.08.2018 14:23
72 ck Avarua Clouds 23 1018 88 10000 11 90 02.08.2018 14:22
73 gr Athen Clouds 22 1019 49 10000 23 54 02.08.2018 14:22
74 mn Ulaanbaatar Clouds 1 1019 51 10000 18 360 02.08.2018 14:23
75 us Las Vegas Clear 22 1019 27 10000 19 60 02.08.2018 14:21
76 cn Shanghai Clear 18 1019 64 10000 13 20 02.08.2018 14:21
77 us Tucson Clear 19 1019 61 10000 20 120 02.08.2018 14:21
78 us Los Angeles Mist 19 1020 85 8047 9 150 02.08.2018 14:22
79 de Hiddensee Clear 15 1020 62 10000 31 221 02.08.2018 14:21
80 tr Istanbul Clouds 20 1020 52 10000 33 20 02.08.2018 14:23
81 de Bremen Clear 17 1020 69 10000 24 220 02.08.2018 14:22
82 cn Peking Clear 12 1020 39 10000 16 191 02.08.2018 14:23
83 ru Jakutsk Clouds -3 1020 63 10000 11 300 02.08.2018 14:22
84 es Palma de Mallorca Clouds 25 1020 67 4000 17 220 02.08.2018 14:22
85 de Braunschweig Clear 18 1021 46 10000 17 220 02.08.2018 14:21
86 de Hamburg Clouds 16 1021 66 10000 26 220 02.08.2018 14:21
87 mg Antananarivo Clouds 25 1021 31 10000 22 150 02.08.2018 14:21
88 es Barcelona Rain 19 1022 86 10000 13 340 02.08.2018 14:22
89 de Kassel Clear 18 1022 48 10000 15 230 02.08.2018 14:21
90 au Perth Clear 15 1022 56 10000 19 210 02.08.2018 14:21
91 at Innsbruck Clear 21 1022 54 10000 4 0 02.08.2018 14:23
92 de Magdeburg Clouds 17 1022 37 10000 12 234 02.08.2018 14:22
93 it Rom Clear 25 1022 48 10000 6 0 02.08.2018 14:23
94 fr Nizza Clouds 24 1022 64 10000 13 190 02.08.2018 14:22
95 za Kapstadt Clear 21 1022 47 10000 20 190 02.08.2018 14:22
96 ru Moskau Clouds 13 1022 65 10000 20 261 02.08.2018 14:22
97 de Torfhaus Clouds 13 1022 58 10000 15 233 02.08.2018 14:22
98 de Köln Clear 19 1022 53 10000 9 210 02.08.2018 14:21
99 de Freiburg Clouds 19 1022 72 10000 8 259 02.08.2018 14:22
100 mx Mexiko Stadt Clouds 14 1023 84 10000 7 10 02.08.2018 14:21
101 it Mailand Clear 25 1023 52 10000 4 0 02.08.2018 14:21
102 kr Seoul Clouds 13 1023 56 10000 9 330 02.08.2018 14:21
103 ch Andermatt Clouds 19 1023 53 10000 5 167 02.08.2018 14:23
104 de München Clouds 15 1023 69 10000 2 319 02.08.2018 14:21
105 fr Paris Clear 18 1023 52 10000 9 0 02.08.2018 14:22
106 fr Bordeaux Clear 22 1023 64 10000 13 120 02.08.2018 14:21
107 et Addis Abeba Clouds 20 1023 60 10000 29 110 02.08.2018 14:23
108 de Oberstdorf Clouds 17 1023 56 10000 6 327 02.08.2018 14:21
109 de Stuttgart Clouds 19 1024 74 10000 13 150 02.08.2018 14:22
110 ad Andorra la Vella Clouds 18 1024 64 10000 5 261 02.08.2018 14:22
111 de Trier Clear 16 1024 49 10000 8 232 02.08.2018 14:21
112 es Madrid Clear 20 1024 59 10000 6 0 02.08.2018 14:23
113 de Frankfurt Clear 18 1024 57 10000 4 0 02.08.2018 14:22
114 de Berlin Clear 16 1024 62 10000 9 210 02.08.2018 14:21
115 bg Warna Clear 22 1024 69 10000 19 130 02.08.2018 14:21
116 de Hannover Clear 16 1024 61 10000 17 210 02.08.2018 14:21
117 at Wien Clouds 21 1025 66 10000 30 140 02.08.2018 14:22
118 de Nürnberg Clouds 14 1026 71 10000 6 100 02.08.2018 14:21
119 ch Bern Clouds 18 1026 69 10000 6 279 02.08.2018 14:23
120 us Chicago Rain 7 1027 79 10000 19 340 02.08.2018 14:23
121 ua Kiew Clear 18 1027 63 10000 2 353 02.08.2018 14:21
122 bg Sofia Clear 20 1028 40 10000 8 113 02.08.2018 14:21
123 us Denver Clear 7 1028 90 10000 6 69 02.08.2018 14:21
124 pe Cusco Clouds 10 1033 62 10000 4 0 02.08.2018 14:23
125 nz Wellington Clouds 6 1035 87 10000 6 20 02.08.2018 14:23
126 mn Uliastai Clouds -7 1036 67 10000 11 40 02.08.2018 14:23
127 bo Potisi Clear -1 1037 59 10000 6 240 02.08.2018 14:22
128 bo La Paz Clouds 9 1039 24 8000 4 0 02.08.2018 14:22